createdAt,value
2023-04-10T00:01:19.795Z,100.00
2023-04-10T00:04:24.836Z,100.00
2023-04-10T00:07:27.827Z,100.00
2023-04-10T00:10:33.451Z,100.00
2023-04-10T00:13:37.741Z,100.00
2023-04-10T00:16:41.055Z,100.00
2023-04-10T00:19:43.993Z,100.00
2023-04-10T00:22:47.157Z,100.00
2023-04-10T00:25:50.115Z,100.00
2023-04-10T00:28:53.319Z,100.00
2023-04-10T00:31:56.315Z,100.00
2023-04-10T00:34:59.665Z,100.00
2023-04-10T00:38:02.618Z,100.00
2023-04-10T00:41:06.579Z,100.00
2023-04-10T00:44:09.430Z,100.00
2023-04-10T00:47:14.309Z,100.00
2023-04-10T00:50:18.495Z,100.00
2023-04-10T00:53:22.211Z,100.00
2023-04-10T00:56:25.593Z,100.00
2023-04-10T00:59:29.253Z,100.00
2023-04-10T01:02:32.433Z,100.00
2023-04-10T01:05:46.694Z,100.00
2023-04-10T01:09:01.493Z,100.00
2023-04-10T01:12:56.475Z,100.00
2023-04-10T01:16:37.028Z,100.00
2023-04-10T01:20:02.350Z,100.00
2023-04-10T01:23:32.887Z,100.00
2023-04-10T01:26:55.118Z,100.00
2023-04-10T01:30:00.732Z,100.00
2023-04-10T01:33:06.686Z,100.00
2023-04-10T01:36:10.365Z,100.00
2023-04-10T01:39:15.010Z,100.00
2023-04-10T01:42:20.104Z,100.00
2023-04-10T01:45:26.291Z,100.00
2023-04-10T01:48:30.593Z,100.00
2023-04-10T01:51:34.747Z,100.00
2023-04-10T01:54:39.116Z,100.00
2023-04-10T01:57:42.510Z,100.00
2023-04-10T02:00:45.783Z,100.00
2023-04-10T02:03:49.632Z,100.00
2023-04-10T02:07:04.882Z,100.00
2023-04-10T02:10:21.612Z,100.00
2023-04-10T02:13:26.851Z,100.00
2023-04-10T02:16:31.248Z,100.00
2023-04-10T02:19:34.823Z,100.00
2023-04-10T02:22:38.074Z,100.00
2023-04-10T02:25:42.113Z,100.00
2023-04-10T02:28:46.028Z,100.00
2023-04-10T02:31:49.253Z,100.00
2023-04-10T02:34:52.401Z,100.00
2023-04-10T02:37:55.658Z,100.00
2023-04-10T02:40:58.893Z,100.00
2023-04-10T02:44:01.975Z,100.00
2023-04-10T02:47:07.294Z,100.00
2023-04-10T02:50:12.172Z,100.00
2023-04-10T02:53:17.454Z,100.00
2023-04-10T02:56:20.962Z,100.00
2023-04-10T02:59:24.437Z,100.00
2023-04-10T03:02:28.071Z,100.00
2023-04-10T03:05:32.842Z,100.00
2023-04-10T03:08:35.813Z,100.00
2023-04-10T03:11:39.073Z,100.00
2023-04-10T03:14:42.100Z,100.00
2023-04-10T03:17:46.926Z,100.00
2023-04-10T03:20:52.371Z,100.00
2023-04-10T03:23:56.482Z,100.00
2023-04-10T03:26:59.514Z,100.00
2023-04-10T03:30:05.929Z,100.00
2023-04-10T03:33:14.874Z,100.00
2023-04-10T03:36:18.350Z,100.00
2023-04-10T03:39:26.310Z,100.00
2023-04-10T03:42:29.679Z,100.00
2023-04-10T03:45:34.690Z,100.00
2023-04-10T03:48:39.347Z,100.00
2023-04-10T03:51:42.217Z,100.00
2023-04-10T03:54:45.642Z,100.00
2023-04-10T03:57:53.848Z,100.00
2023-04-10T04:00:57.626Z,100.00
2023-04-10T04:04:01.758Z,100.00
2023-04-10T04:07:11.352Z,100.00
2023-04-10T04:10:16.513Z,100.00
2023-04-10T04:13:24.547Z,100.00
2023-04-10T04:16:29.383Z,100.00
2023-04-10T04:19:32.375Z,100.00
2023-04-10T04:22:37.045Z,100.00
2023-04-10T04:25:40.943Z,100.00
2023-04-10T04:28:44.579Z,100.00
2023-04-10T04:31:48.754Z,100.00
2023-04-10T04:34:52.287Z,100.00
2023-04-10T04:37:55.762Z,100.00
2023-04-10T04:40:59.664Z,100.00
2023-04-10T04:44:05.552Z,100.00
2023-04-10T04:47:09.214Z,100.00
2023-04-10T04:50:12.678Z,100.00
2023-04-10T04:53:16.717Z,100.00
2023-04-10T04:56:19.978Z,100.00
2023-04-10T04:59:23.716Z,100.00
2023-04-10T05:02:28.568Z,100.00
2023-04-10T05:05:33.452Z,100.00
2023-04-10T05:08:38.649Z,100.00
2023-04-10T05:11:42.003Z,100.00
2023-04-10T05:14:47.484Z,100.00
2023-04-10T05:17:53.550Z,100.00
2023-04-10T05:21:01.932Z,100.00
2023-04-10T05:24:07.215Z,100.00
2023-04-10T05:27:12.261Z,100.00
2023-04-10T05:30:18.503Z,100.00
2023-04-10T05:33:21.562Z,100.00
2023-04-10T05:36:26.868Z,100.00
2023-04-10T05:39:31.611Z,100.00
2023-04-10T05:42:36.082Z,100.00
2023-04-10T05:45:39.065Z,100.00
2023-04-10T05:48:42.527Z,100.00
2023-04-10T05:51:50.380Z,100.00
2023-04-10T05:54:53.713Z,100.00
2023-04-10T05:57:56.900Z,100.00
2023-04-10T06:01:00.350Z,100.00
2023-04-10T06:04:05.184Z,100.00
2023-04-10T06:07:09.165Z,100.00
2023-04-10T06:10:12.497Z,100.00
2023-04-10T06:13:15.679Z,100.00
2023-04-10T06:16:19.044Z,100.00
2023-04-10T06:19:22.074Z,100.00
2023-04-10T06:22:27.195Z,100.00
2023-04-10T06:25:30.135Z,100.00
2023-04-10T06:28:34.993Z,100.00
2023-04-10T06:31:39.968Z,99.24
2023-04-10T06:34:47.958Z,99.04
2023-04-10T06:37:51.997Z,98.26
2023-04-10T06:40:56.664Z,100.00
2023-04-10T06:44:01.761Z,99.75
2023-04-10T06:47:09.299Z,97.82
2023-04-10T06:50:13.546Z,99.26
2023-04-10T06:53:17.005Z,98.89
2023-04-10T06:56:21.252Z,98.50
2023-04-10T06:59:24.495Z,99.10
2023-04-10T07:02:27.601Z,98.04
2023-04-10T07:05:31.019Z,96.32
2023-04-10T07:08:34.154Z,96.42
2023-04-10T07:11:37.340Z,98.71
2023-04-10T07:14:40.329Z,100.00
2023-04-10T07:17:44.075Z,97.32
2023-04-10T07:20:47.077Z,96.58
2023-04-10T07:23:50.272Z,95.32
2023-04-10T07:26:53.217Z,96.94
2023-04-10T07:29:57.166Z,97.99
2023-04-10T07:33:01.740Z,96.35
2023-04-10T07:36:07.108Z,92.90
2023-04-10T07:39:10.029Z,95.47
2023-04-10T07:42:14.682Z,94.99
2023-04-10T07:45:17.546Z,93.29
2023-04-10T07:48:20.756Z,91.64
2023-04-10T07:51:23.890Z,90.50
2023-04-10T07:54:27.136Z,90.04
2023-04-10T07:57:30.668Z,89.25
2023-04-10T08:00:34.533Z,89.44
2023-04-10T08:03:41.979Z,88.17
2023-04-10T08:06:44.908Z,87.04
2023-04-10T08:09:48.384Z,86.82
2023-04-10T08:12:51.338Z,87.87
2023-04-10T08:15:54.544Z,86.88
2023-04-10T08:18:58.166Z,86.28
2023-04-10T08:22:01.443Z,87.62
2023-04-10T08:25:06.321Z,87.48
2023-04-10T08:28:09.560Z,88.68
2023-04-10T08:31:14.709Z,89.64
2023-04-10T08:34:19.316Z,87.88
2023-04-10T08:37:22.306Z,86.07
2023-04-10T08:40:25.671Z,84.79
2023-04-10T08:43:28.912Z,84.66
2023-04-10T08:46:33.934Z,84.07
2023-04-10T08:49:39.341Z,82.01
2023-04-10T08:52:44.119Z,81.16
2023-04-10T08:55:47.211Z,80.55
2023-04-10T08:58:52.173Z,80.69
2023-04-10T09:01:55.269Z,78.81
2023-04-10T09:05:00.587Z,77.05
2023-04-10T09:08:08.100Z,77.70
2023-04-10T09:11:13.463Z,77.83
2023-04-10T09:14:23.073Z,78.04
2023-04-10T09:17:26.326Z,77.57
2023-04-10T09:20:32.685Z,75.97
2023-04-10T09:23:35.804Z,75.02
2023-04-10T09:26:38.668Z,74.63
2023-04-10T09:29:49.202Z,71.32
2023-04-10T09:32:52.322Z,70.59
2023-04-10T09:35:58.181Z,71.60
2023-04-10T09:39:01.046Z,70.92
2023-04-10T09:42:04.726Z,70.47
2023-04-10T09:45:07.843Z,69.31
2023-04-10T09:48:11.348Z,69.58
2023-04-10T09:51:31.755Z,64.77
2023-04-10T09:54:38.256Z,58.98
2023-04-10T09:57:41.290Z,62.60
2023-04-10T10:00:49.574Z,66.26
2023-04-10T10:03:57.290Z,66.16
2023-04-10T10:07:01.671Z,66.12
2023-04-10T10:10:07.446Z,65.75
2023-04-10T10:13:11.346Z,64.02
2023-04-10T10:16:32.565Z,58.34
2023-04-10T10:19:46.406Z,55.85
2023-04-10T10:22:50.841Z,55.02
2023-04-10T10:25:54.619Z,54.74
2023-04-10T10:28:58.580Z,52.55
2023-04-10T10:32:03.164Z,51.74
2023-04-10T10:35:08.091Z,50.82
2023-04-10T10:38:11.258Z,50.89
2023-04-10T10:41:21.425Z,51.65
2023-04-10T10:44:32.293Z,50.43
2023-04-10T10:47:50.142Z,50.62
2023-04-10T10:51:02.885Z,50.54
2023-04-10T10:54:35.080Z,51.83
2023-04-10T10:57:48.530Z,51.07
2023-04-10T11:00:52.697Z,51.47
2023-04-10T11:03:56.036Z,50.90
2023-04-10T11:07:00.662Z,49.97
2023-04-10T11:10:03.677Z,49.65
2023-04-10T11:13:16.275Z,49.79
2023-04-10T11:16:24.734Z,49.57
2023-04-10T11:19:28.428Z,49.97
2023-04-10T11:22:31.489Z,48.55
2023-04-10T11:25:52.572Z,48.43
2023-04-10T11:28:55.866Z,48.15
2023-04-10T11:32:01.541Z,48.16
2023-04-10T11:35:05.272Z,47.53
2023-04-10T11:38:13.982Z,46.33
2023-04-10T11:41:16.961Z,45.51
2023-04-10T11:44:27.765Z,45.20
2023-04-10T11:47:31.080Z,44.69
2023-04-10T11:50:36.315Z,42.66
2023-04-10T11:53:40.098Z,43.75
2023-04-10T11:56:44.951Z,42.47
2023-04-10T11:59:50.723Z,40.96
2023-04-10T12:02:54.295Z,41.58
2023-04-10T12:05:57.844Z,40.75
2023-04-10T12:09:00.702Z,38.93
2023-04-10T12:12:05.722Z,42.88
2023-04-10T12:15:28.779Z,42.83
2023-04-10T12:18:32.447Z,42.07
2023-04-10T12:21:40.085Z,41.11
2023-04-10T12:24:47.868Z,39.70
2023-04-10T12:27:51.801Z,38.80
2023-04-10T12:30:55.234Z,36.37
2023-04-10T12:33:59.179Z,37.06
2023-04-10T12:37:03.053Z,36.36
2023-04-10T12:40:07.504Z,33.96
2023-04-10T12:43:10.812Z,31.70
2023-04-10T12:46:24.424Z,30.54
2023-04-10T12:49:27.743Z,27.50
2023-04-10T12:52:30.668Z,29.64
2023-04-10T12:55:33.927Z,31.52
2023-04-10T12:58:37.163Z,32.92
2023-04-10T13:01:40.661Z,30.54
2023-04-10T13:04:43.805Z,31.69
2023-04-10T13:07:47.378Z,31.51
2023-04-10T13:10:50.654Z,28.62
2023-04-10T13:13:53.876Z,26.81
2023-04-10T13:16:57.630Z,28.14
2023-04-10T13:20:00.962Z,26.49
2023-04-10T13:23:04.599Z,30.42
2023-04-10T13:26:07.756Z,28.15
2023-04-10T13:29:10.793Z,28.31
2023-04-10T13:32:13.957Z,29.05
2023-04-10T13:35:16.886Z,30.18
2023-04-10T13:38:21.407Z,26.69
2023-04-10T13:41:24.772Z,25.54
2023-04-10T13:44:28.454Z,26.91
2023-04-10T13:47:31.424Z,27.78
2023-04-10T13:50:34.630Z,26.83
2023-04-10T13:53:37.597Z,25.81
2023-04-10T13:56:41.420Z,25.45
2023-04-10T13:59:45.769Z,25.53
2023-04-10T14:02:49.214Z,25.19
2023-04-10T14:05:53.010Z,27.37
2023-04-10T14:08:56.177Z,25.53
2023-04-10T14:11:59.586Z,25.69
2023-04-10T14:15:02.550Z,28.00
2023-04-10T14:18:05.826Z,27.02
2023-04-10T14:21:08.862Z,24.75
2023-04-10T14:24:12.188Z,25.06
2023-04-10T14:27:15.227Z,24.08
2023-04-10T14:30:19.001Z,22.70
2023-04-10T14:33:22.001Z,23.41
2023-04-10T14:36:25.644Z,24.72
2023-04-10T14:39:28.720Z,24.67
2023-04-10T14:42:33.088Z,23.80
2023-04-10T14:45:36.056Z,26.22
2023-04-10T14:48:40.560Z,26.64
2023-04-10T14:51:44.914Z,25.35
2023-04-10T14:54:48.188Z,25.53
2023-04-10T14:57:51.148Z,26.57
2023-04-10T15:00:54.600Z,27.26
2023-04-10T15:03:57.791Z,27.07
2023-04-10T15:07:01.593Z,26.00
2023-04-10T15:10:05.147Z,27.82
2023-04-10T15:13:13.576Z,30.07
2023-04-10T15:16:17.051Z,29.23
2023-04-10T15:19:20.405Z,29.84
2023-04-10T15:22:23.267Z,28.53
2023-04-10T15:25:26.438Z,30.04
2023-04-10T15:28:29.380Z,29.25
2023-04-10T15:31:32.572Z,29.20
2023-04-10T15:34:35.631Z,29.80
2023-04-10T15:37:39.620Z,28.56
2023-04-10T15:40:42.524Z,27.70
2023-04-10T15:43:45.845Z,31.42
2023-04-10T15:46:48.812Z,33.07
2023-04-10T15:49:52.042Z,35.22
2023-04-10T15:52:54.997Z,35.65
2023-04-10T15:55:58.889Z,33.10
2023-04-10T15:59:01.834Z,33.49
2023-04-10T16:02:05.249Z,30.13
2023-04-10T16:05:09.450Z,30.20
2023-04-10T16:08:12.513Z,31.60
2023-04-10T16:11:15.786Z,35.36
2023-04-10T16:14:20.214Z,37.26
2023-04-10T16:17:23.412Z,38.42
2023-04-10T16:20:28.708Z,39.38
2023-04-10T16:23:33.134Z,40.24
2023-04-10T16:26:36.146Z,41.49
2023-04-10T16:29:39.406Z,41.20
2023-04-10T16:32:42.471Z,41.55
2023-04-10T16:35:45.723Z,42.06
2023-04-10T16:38:49.983Z,44.37
2023-04-10T16:41:53.734Z,42.42
2023-04-10T16:44:58.838Z,42.17
2023-04-10T16:48:02.254Z,40.31
2023-04-10T16:51:06.889Z,41.46
2023-04-10T16:54:10.140Z,42.28
2023-04-10T16:57:13.023Z,44.64
2023-04-10T17:00:16.703Z,45.49
2023-04-10T17:03:19.658Z,46.67
2023-04-10T17:06:22.960Z,46.20
2023-04-10T17:09:26.407Z,46.72
2023-04-10T17:12:29.746Z,46.20
2023-04-10T17:15:32.623Z,47.91
2023-04-10T17:18:36.239Z,48.31
2023-04-10T17:21:39.200Z,48.65
2023-04-10T17:24:43.765Z,50.76
2023-04-10T17:27:46.662Z,51.25
2023-04-10T17:30:49.819Z,52.59
2023-04-10T17:33:52.682Z,54.04
2023-04-10T17:36:56.447Z,54.89
2023-04-10T17:39:59.424Z,55.90
2023-04-10T17:43:02.900Z,56.30
2023-04-10T17:46:07.169Z,56.07
2023-04-10T17:49:10.518Z,57.23
2023-04-10T17:52:14.404Z,56.98
2023-04-10T17:55:20.889Z,56.86
2023-04-10T17:58:25.596Z,57.09
2023-04-10T18:01:31.752Z,57.11
2023-04-10T18:04:35.472Z,57.64
2023-04-10T18:07:39.146Z,57.91
2023-04-10T18:10:42.457Z,58.44
2023-04-10T18:13:47.564Z,59.07
2023-04-10T18:16:50.764Z,59.23
2023-04-10T18:19:56.616Z,59.32
2023-04-10T18:22:59.903Z,60.09
2023-04-10T18:26:04.373Z,60.78
2023-04-10T18:29:08.144Z,60.98
2023-04-10T18:32:11.580Z,60.65
2023-04-10T18:35:14.873Z,60.76
2023-04-10T18:38:18.676Z,60.76
2023-04-10T18:41:21.941Z,61.73
2023-04-10T18:44:25.479Z,61.23
2023-04-10T18:47:29.606Z,61.08
2023-04-10T18:50:39.074Z,62.06
2023-04-10T18:53:42.729Z,62.59
2023-04-10T18:56:46.274Z,63.43
2023-04-10T18:59:49.423Z,63.58
2023-04-10T19:02:54.456Z,64.25
2023-04-10T19:05:59.132Z,64.93
2023-04-10T19:09:02.108Z,64.82
2023-04-10T19:12:05.460Z,65.48
2023-04-10T19:15:09.458Z,65.56
2023-04-10T19:18:14.966Z,65.91
2023-04-10T19:21:19.648Z,67.63
2023-04-10T19:24:23.141Z,68.17
2023-04-10T19:27:26.971Z,68.60
2023-04-10T19:30:30.667Z,68.54
2023-04-10T19:33:34.556Z,68.73
2023-04-10T19:36:38.337Z,69.31
2023-04-10T19:39:41.586Z,69.41
2023-04-10T19:42:46.002Z,69.14
2023-04-10T19:45:49.294Z,69.25
2023-04-10T19:48:53.011Z,69.96
2023-04-10T19:51:56.785Z,70.08
2023-04-10T19:55:00.197Z,70.54
2023-04-10T19:58:03.418Z,72.20
2023-04-10T20:01:09.208Z,72.47
2023-04-10T20:04:12.975Z,73.20
2023-04-10T20:07:16.217Z,73.41
2023-04-10T20:10:20.794Z,73.38
2023-04-10T20:13:23.965Z,74.28
2023-04-10T20:16:27.443Z,74.47
2023-04-10T20:19:30.430Z,74.71
2023-04-10T20:22:33.776Z,75.69
2023-04-10T20:25:38.115Z,75.86
2023-04-10T20:28:41.337Z,76.51
2023-04-10T20:31:44.271Z,76.61
2023-04-10T20:34:47.551Z,76.90
2023-04-10T20:37:50.452Z,77.42
2023-04-10T20:40:55.524Z,78.43
2023-04-10T20:43:58.600Z,81.07
2023-04-10T20:47:02.647Z,80.55
2023-04-10T20:50:06.355Z,79.98
2023-04-10T20:53:09.610Z,79.91
2023-04-10T20:56:12.837Z,80.25
2023-04-10T20:59:16.265Z,80.88
2023-04-10T21:02:19.281Z,81.58
2023-04-10T21:05:22.936Z,81.75
2023-04-10T21:08:25.761Z,81.88
2023-04-10T21:11:28.906Z,82.11
2023-04-10T21:14:31.804Z,81.89
2023-04-10T21:17:35.131Z,81.92
2023-04-10T21:20:38.154Z,82.42
2023-04-10T21:23:43.157Z,82.61
2023-04-10T21:26:46.079Z,83.20
2023-04-10T21:29:50.454Z,83.15
2023-04-10T21:32:53.366Z,83.27
2023-04-10T21:35:56.845Z,83.53
2023-04-10T21:38:59.862Z,83.60
2023-04-10T21:42:03.102Z,83.92
2023-04-10T21:45:06.918Z,84.39
2023-04-10T21:48:10.039Z,84.95
2023-04-10T21:51:13.019Z,85.28
2023-04-10T21:54:16.232Z,85.66
2023-04-10T21:57:19.180Z,86.04
2023-04-10T22:00:23.174Z,86.47
2023-04-10T22:03:27.441Z,86.61
2023-04-10T22:06:31.624Z,86.61
2023-04-10T22:09:34.746Z,86.70
2023-04-10T22:12:38.017Z,86.78
2023-04-10T22:15:41.286Z,86.66
2023-04-10T22:18:44.288Z,87.57
2023-04-10T22:21:47.644Z,87.48
2023-04-10T22:24:50.947Z,86.89
2023-04-10T22:27:54.241Z,87.12
2023-04-10T22:30:57.222Z,88.23
2023-04-10T22:34:01.003Z,88.30
2023-04-10T22:37:03.984Z,89.18
2023-04-10T22:40:07.931Z,88.98
2023-04-10T22:43:11.388Z,89.12
2023-04-10T22:46:14.652Z,89.06
2023-04-10T22:49:18.909Z,89.23
2023-04-10T22:52:22.187Z,88.70
2023-04-10T22:55:26.052Z,88.69
2023-04-10T22:58:29.179Z,88.93
2023-04-10T23:01:32.148Z,89.65
2023-04-10T23:04:35.509Z,90.08
2023-04-10T23:07:38.366Z,89.53
2023-04-10T23:10:41.614Z,89.46
2023-04-10T23:13:44.646Z,89.45
2023-04-10T23:16:47.928Z,89.51
2023-04-10T23:19:50.873Z,89.81
2023-04-10T23:22:55.663Z,90.23
2023-04-10T23:26:00.022Z,90.69
2023-04-10T23:29:03.351Z,91.02
2023-04-10T23:32:07.985Z,91.78
2023-04-10T23:35:12.491Z,92.07
2023-04-10T23:38:15.661Z,91.78
2023-04-10T23:41:20.316Z,91.67
2023-04-10T23:44:23.824Z,91.53
2023-04-10T23:47:27.227Z,91.74
2023-04-10T23:50:30.235Z,91.87
2023-04-10T23:53:33.769Z,91.96
2023-04-10T23:56:36.695Z,92.06
2023-04-10T23:59:39.875Z,92.37
